Mikela P. — A8UB7 — position and weather

sailwx.info

Track history (hours):
 
Tides and Currents Weather Stations Pressure Air Temp Water Temp Dewpoint Dewpoint Depression Visibility Wind Speed Wind Dir Waves Ship Positions

Mikela P.

Last reported at 2018-Jul-18 12:44 UTC. Time now 2018-Jul-19 15:10 UTC.
Position N 37°33' W 001°01'.

Length 274 m; draft 16.2 m.

Type: Ship. MMSI: 636014469.

Date/timePositionNaut miles runAvg speedWind from/ knotsBaromVisibWave heightAir tempDewpointWater temp
2018-Jul-18 12:44N 37°33' W 001°01'  
2018-Jul-15 07:57N 35°60' W 005°11'614.2
2018-Jul-15 07:30N 35°59' W 005°19'714.2
2018-Jul-15 07:00N 35°57' W 005°27'814.5
2018-Jul-15 06:27N 35°55' W 005°37'614.3
2018-Jul-15 06:00N 35°54' W 005°45'714.4
2018-Jul-15 05:29N 35°54' W 005°54'  
2018-Jul-13 01:28N 28°45' W 014°39'611.9
2018-Jul-13 00:55N 28°39' W 014°41'512.0
2018-Jul-13 00:30N 28°35' W 014°43'612.2
2018-Jul-13 00:00N 28°29' W 014°46'712.5
2018-Jul-12 23:28N 28°23' W 014°48'612.6
2018-Jul-12 22:59N 28°17' W 014°51'612.2
2018-Jul-12 22:30N 28°12' W 014°53'611.8
2018-Jul-12 22:00N 28°06' W 014°56'611.5
2018-Jul-12 21:31N 28°01' W 014°58'611.7
2018-Jul-12 21:00N 27°55' W 015°00'611.5
2018-Jul-12 20:30N 27°50' W 015°02'611.3
2018-Jul-12 20:00N 27°44' W 015°04'611.1
2018-Jul-12 19:30N 27°39' W 015°07'610.8
2018-Jul-12 18:59N 27°34' W 015°09'  
Track history (hours):
 
Tides and Currents Weather Stations Pressure Air Temp Water Temp Dewpoint Dewpoint Depression Visibility Wind Speed Wind Dir Waves Ship Positions

Mikela P.

Last reported at 2018-Jul-18 12:44 UTC. Time now 2018-Jul-19 15:10 UTC.
Position N 37°33' W 001°01'.

Length 274 m; draft 16.2 m.

Type: Ship. MMSI: 636014469.

Date/timePositionNaut miles runAvg speedWind from/ knotsBaromVisibWave heightAir tempDewpointWater temp
2018-Jul-18 12:44N 37°33' W 001°01'  
2018-Jul-15 07:57N 35°60' W 005°11'614.2
2018-Jul-15 07:30N 35°59' W 005°19'714.2
2018-Jul-15 07:00N 35°57' W 005°27'814.5
2018-Jul-15 06:27N 35°55' W 005°37'614.3
2018-Jul-15 06:00N 35°54' W 005°45'714.4
2018-Jul-15 05:29N 35°54' W 005°54'  
2018-Jul-13 01:28N 28°45' W 014°39'611.9
2018-Jul-13 00:55N 28°39' W 014°41'512.0
2018-Jul-13 00:30N 28°35' W 014°43'612.2
2018-Jul-13 00:00N 28°29' W 014°46'712.5
2018-Jul-12 23:28N 28°23' W 014°48'612.6
2018-Jul-12 22:59N 28°17' W 014°51'612.2
2018-Jul-12 22:30N 28°12' W 014°53'611.8
2018-Jul-12 22:00N 28°06' W 014°56'611.5
2018-Jul-12 21:31N 28°01' W 014°58'611.7
2018-Jul-12 21:00N 27°55' W 015°00'611.5
2018-Jul-12 20:30N 27°50' W 015°02'611.3
2018-Jul-12 20:00N 27°44' W 015°04'611.1
2018-Jul-12 19:30N 27°39' W 015°07'610.8
2018-Jul-12 18:59N 27°34' W 015°09'  

Dump ship's entire track history